Airfield :
LOGIN :

Register | Disclaimer

   EN    FR    IT 

 










Legend :    VFR   Marginal VFR   IFR   Intensive IFR   Very Intensive IFR
Visi :
Ceiling :
>= 8 km
>= 3000ft
5 to 8 km
1000 to 3000 ft
1500m to 5 km
500 to 1000 ft
800 to 1500m
200 to 500 ft
< 800m
< 200 ft
Symbols :   Thunderstorms  Fog  Heavy snow  Heavy precipitations  Wind > 20 kt
SIGMETs :     Misc.  Thunderstorms  Icing  Turbulence  Mountain Waves  Volcanic Ashes







- Airport Elevation : 0 ft


ETEB - Ansbach Army Heliport

CURRENT METAR :
  • 192256Z AUTO 36003KT 8000 BR CLR 09/09 A3028 RMK AO2 SLP267 T00910089 401640076 $

EXPIRED METARs :
  • 192156Z AUTO 00000KT 8000 BR CLR 09/08 A3027 RMK AO2 SLP265 T00850084 $
  • 192056Z AUTO 00000KT 9999 CLR 11/09 A3026 RMK AO2 SLP262 T01060087 52012 $

TAF AMD TAF ETEB
Valid from the 19 at 16:00 until the 20 at 19:00 UTC


191610Z 1916/2019 VRB06KT 9999 SCT020 BKN025 QNH3018INS
BECMG 1923/1924 VRB06KT 6000 BR SKC QNH3022INS
BECMG 2002/2003 VRB06KT 3200 BR FEW001 QNH3024INS
BECMG 2003/2004 VRB06KT 0400 FG VV001 QNH3032INS
BECMG 2008/2009 01006KT 9999 NSW FEW002 SCT010 QNH3032INS
BECMG 2011/2012 02006KT 9999 SCT030 QNH3032INS TX16/2013Z TN04/2006Z LAST NO AMDS AFT 1916 NEXT 2105
No reported NOTAMs for that airfield.



MET'MAP, your aeronautical weather chart ! - Copyright ORBIFLY December 2007 - Disclaimer

ORBIFLY MET'MAP TEAM :

Programming & Development : Alexandra Zaïnal
Concept & Development : Baudouin d'Aumeries
Co-Development & Prog : Marc-Olivier Méhu
Technical & hardware support : Manuel Goepfert

Contact : metmap@orbifly.com




SOURCES & CREDITS :

   NOAA